sensor_id;sensor_type;location;lat;lon;timestamp;pressure;altitude;pressure_sealevel;temperature;humidity
13954;BME280;7049;49.444;8.522;2023-02-28T00:03:30;79957.25;;;-3.47;52.06
13954;BME280;7049;49.444;8.522;2023-02-28T00:08:35;79957.25;;;-3.47;52.24
13954;BME280;7049;49.444;8.522;2023-02-28T00:13:39;79965.63;;;-3.47;52.06
13954;BME280;7049;49.444;8.522;2023-02-28T00:18:42;79974.00;;;-3.47;51.91
13954;BME280;7049;49.444;8.522;2023-02-28T00:23:43;79982.38;;;-3.47;52.24
13954;BME280;7049;49.444;8.522;2023-02-28T00:28:45;79982.38;;;-3.47;52.54
13954;BME280;7049;49.444;8.522;2023-02-28T00:33:48;79999.13;;;-3.47;52.67
13954;BME280;7049;49.444;8.522;2023-02-28T00:38:51;80007.50;;;-3.47;52.78
13954;BME280;7049;49.444;8.522;2023-02-28T00:43:52;80011.69;;;-3.47;53.29
13954;BME280;7049;49.444;8.522;2023-02-28T00:48:55;80017.97;;;-3.47;53.24
13954;BME280;7049;49.444;8.522;2023-02-28T00:53:57;80026.34;;;-3.47;53.78
13954;BME280;7049;49.444;8.522;2023-02-28T00:58:58;80041.00;;;-3.47;54.41
13954;BME280;7049;49.444;8.522;2023-02-28T01:04:01;80047.28;;;-3.47;54.52
13954;BME280;7049;49.444;8.522;2023-02-28T01:09:04;80045.19;;;-3.47;54.89
13954;BME280;7049;49.444;8.522;2023-02-28T01:14:06;80049.38;;;-3.47;55.05
13954;BME280;7049;49.444;8.522;2023-02-28T01:19:08;80059.84;;;-3.47;55.56
13954;BME280;7049;49.444;8.522;2023-02-28T01:24:10;80061.94;;;-3.47;56.15
13954;BME280;7049;49.444;8.522;2023-02-28T01:29:11;80070.31;;;-3.47;56.13
13954;BME280;7049;49.444;8.522;2023-02-28T01:34:14;80074.50;;;-3.47;56.80
13954;BME280;7049;49.444;8.522;2023-02-28T01:39:16;80082.88;;;-3.47;56.98
13954;BME280;7049;49.444;8.522;2023-02-28T01:45:00;80087.06;;;-3.47;57.50
13954;BME280;7049;49.444;8.522;2023-02-28T01:50:06;80082.88;;;-3.47;57.91
13954;BME280;7049;49.444;8.522;2023-02-28T01:55:10;80095.44;;;-3.47;58.11
13954;BME280;7049;49.444;8.522;2023-02-28T02:00:15;80089.16;;;-3.47;58.63
13954;BME280;7049;49.444;8.522;2023-02-28T02:05:21;80101.72;;;-3.47;58.51
13954;BME280;7049;49.444;8.522;2023-02-28T02:10:27;80095.44;;;-3.47;58.45
13954;BME280;7049;49.444;8.522;2023-02-28T02:15:34;80093.34;;;-3.47;59.05
13954;BME280;7049;49.444;8.522;2023-02-28T02:26:33;80099.63;;;-3.47;59.71
13954;BME280;7049;49.444;8.522;2023-02-28T02:32:05;80103.81;;;-3.47;59.92
13954;BME280;7049;49.444;8.522;2023-02-28T02:37:21;80112.19;;;-3.47;61.02
13954;BME280;7049;49.444;8.522;2023-02-28T02:42:33;80112.19;;;-3.47;61.29
13954;BME280;7049;49.444;8.522;2023-02-28T02:47:38;80114.28;;;-3.47;61.33
13954;BME280;7049;49.444;8.522;2023-02-28T02:52:45;80120.56;;;-3.47;61.65
13954;BME280;7049;49.444;8.522;2023-02-28T02:57:51;80124.75;;;-3.47;61.97
13954;BME280;7049;49.444;8.522;2023-02-28T03:02:54;80128.94;;;-3.47;62.42
13954;BME280;7049;49.444;8.522;2023-02-28T03:07:58;80131.03;;;-3.47;62.22
13954;BME280;7049;49.444;8.522;2023-02-28T03:13:12;80128.94;;;-3.47;62.39
13954;BME280;7049;49.444;8.522;2023-02-28T03:18:24;80131.03;;;-3.47;62.18
13954;BME280;7049;49.444;8.522;2023-02-28T03:23:35;80141.50;;;-3.47;62.69
13954;BME280;7049;49.444;8.522;2023-02-28T03:28:47;80135.22;;;-3.47;62.41
13954;BME280;7049;49.444;8.522;2023-02-28T03:33:55;80137.31;;;-3.47;62.68
13954;BME280;7049;49.444;8.522;2023-02-28T03:39:04;80141.50;;;-3.47;62.95
13954;BME280;7049;49.444;8.522;2023-02-28T03:44:12;80139.41;;;-3.47;63.35
13954;BME280;7049;49.444;8.522;2023-02-28T03:49:17;80145.69;;;-3.47;63.51
13954;BME280;7049;49.444;8.522;2023-02-28T03:54:25;80147.78;;;-3.47;63.43
13954;BME280;7049;49.444;8.522;2023-02-28T03:59:32;80145.69;;;-3.47;63.80
13954;BME280;7049;49.444;8.522;2023-02-28T04:04:35;80149.88;;;-3.47;63.83
13954;BME280;7049;49.444;8.522;2023-02-28T04:09:38;80149.88;;;-3.47;64.94
13954;BME280;7049;49.444;8.522;2023-02-28T04:14:40;80156.16;;;-3.47;64.32
13954;BME280;7049;49.444;8.522;2023-02-28T04:19:41;80156.16;;;-3.47;64.36
13954;BME280;7049;49.444;8.522;2023-02-28T04:24:44;80154.06;;;-3.47;64.21
13954;BME280;7049;49.444;8.522;2023-02-28T04:29:46;80158.25;;;-3.47;64.62
13954;BME280;7049;49.444;8.522;2023-02-28T04:34:47;80162.44;;;-3.47;64.64
13954;BME280;7049;49.444;8.522;2023-02-28T04:39:50;80160.34;;;-3.47;64.76
13954;BME280;7049;49.444;8.522;2023-02-28T04:44:52;80166.63;;;-3.47;64.81
13954;BME280;7049;49.444;8.522;2023-02-28T04:49:53;80175.00;;;-3.47;64.91
13954;BME280;7049;49.444;8.522;2023-02-28T04:54:56;80170.81;;;-3.47;65.47
13954;BME280;7049;49.444;8.522;2023-02-28T04:59:57;80183.38;;;-3.47;65.38
13954;BME280;7049;49.444;8.522;2023-02-28T05:04:59;80187.56;;;-3.47;65.72
13954;BME280;7049;49.444;8.522;2023-02-28T05:10:01;80195.94;;;-3.47;65.80
13954;BME280;7049;49.444;8.522;2023-02-28T05:15:04;80193.84;;;-3.47;66.53
13954;BME280;7049;49.444;8.522;2023-02-28T05:20:06;80198.03;;;-3.47;66.82
13954;BME280;7049;49.444;8.522;2023-02-28T05:25:12;80195.94;;;-3.47;67.20
13954;BME280;7049;49.444;8.522;2023-02-28T05:30:15;80187.56;;;-3.47;66.84
13954;BME280;7049;49.444;8.522;2023-02-28T05:35:17;80177.09;;;-3.47;67.16
13954;BME280;7049;49.444;8.522;2023-02-28T05:40:20;80179.19;;;-3.47;66.91
13954;BME280;7049;49.444;8.522;2023-02-28T05:45:21;80175.00;;;-3.47;66.87
13954;BME280;7049;49.444;8.522;2023-02-28T05:50:23;80181.28;;;-3.47;66.95
13954;BME280;7049;49.444;8.522;2023-02-28T05:55:25;80175.00;;;-3.47;66.89
13954;BME280;7049;49.444;8.522;2023-02-28T06:00:27;80172.91;;;-3.47;66.77
13954;BME280;7049;49.444;8.522;2023-02-28T06:05:28;80162.44;;;-3.47;66.97
13954;BME280;7049;49.444;8.522;2023-02-28T06:10:31;80166.63;;;-3.47;66.88
13954;BME280;7049;49.444;8.522;2023-02-28T06:15:33;80166.63;;;-3.47;66.51
13954;BME280;7049;49.444;8.522;2023-02-28T06:20:34;80175.00;;;-3.47;66.79
13954;BME280;7049;49.444;8.522;2023-02-28T06:25:37;80170.81;;;-3.47;66.69
13954;BME280;7049;49.444;8.522;2023-02-28T06:30:39;80177.09;;;-3.47;66.86
13954;BME280;7049;49.444;8.522;2023-02-28T06:35:43;80172.91;;;-3.47;66.29
13954;BME280;7049;49.444;8.522;2023-02-28T06:40:53;80168.72;;;-3.47;65.93
13954;BME280;7049;49.444;8.522;2023-02-28T06:45:54;80166.63;;;-3.47;65.98
13954;BME280;7049;49.444;8.522;2023-02-28T06:51:02;80166.63;;;-3.47;66.06
13954;BME280;7049;49.444;8.522;2023-02-28T06:56:06;80162.44;;;-3.47;65.84
13954;BME280;7049;49.444;8.522;2023-02-28T07:01:08;80154.06;;;-3.47;65.87
13954;BME280;7049;49.444;8.522;2023-02-28T07:06:09;80143.59;;;-3.47;65.61
13954;BME280;7049;49.444;8.522;2023-02-28T07:11:12;80139.41;;;-3.47;65.52
13954;BME280;7049;49.444;8.522;2023-02-28T07:16:14;80128.94;;;-3.47;65.38
13954;BME280;7049;49.444;8.522;2023-02-28T07:21:15;80120.56;;;-3.47;65.23
13954;BME280;7049;49.444;8.522;2023-02-28T07:26:19;80103.81;;;-3.47;64.65
13954;BME280;7049;49.444;8.522;2023-02-28T07:31:20;80089.16;;;-3.47;64.40
13954;BME280;7049;49.444;8.522;2023-02-28T07:36:22;80070.31;;;-3.47;64.40
13954;BME280;7049;49.444;8.522;2023-02-28T07:41:25;80032.63;;;-3.47;63.49
13954;BME280;7049;49.444;8.522;2023-02-28T07:46:27;80009.59;;;-3.47;61.92
13954;BME280;7049;49.444;8.522;2023-02-28T07:51:35;79997.03;;;-3.47;60.98
13954;BME280;7049;49.444;8.522;2023-02-28T07:56:37;79982.38;;;-3.47;60.00
13954;BME280;7049;49.444;8.522;2023-02-28T08:01:39;79978.19;;;-3.47;58.58
13954;BME280;7049;49.444;8.522;2023-02-28T08:06:40;79978.19;;;-3.47;58.64
13954;BME280;7049;49.444;8.522;2023-02-28T08:11:43;79959.34;;;-3.47;58.07
13954;BME280;7049;49.444;8.522;2023-02-28T08:16:45;79938.41;;;-3.47;58.37
13954;BME280;7049;49.444;8.522;2023-02-28T08:21:46;79909.09;;;-3.47;58.00
13954;BME280;7049;49.444;8.522;2023-02-28T08:26:49;79879.78;;;-3.47;57.65
13954;BME280;7049;49.444;8.522;2023-02-28T08:31:51;79825.34;;;-3.47;56.41
13954;BME280;7049;49.444;8.522;2023-02-28T08:36:52;79766.72;;;-3.47;54.35
13954;BME280;7049;49.444;8.522;2023-02-28T08:41:55;79718.56;;;-3.47;51.77
13954;BME280;7049;49.444;8.522;2023-02-28T08:46:56;79678.78;;;-3.47;49.75
13954;BME280;7049;49.444;8.522;2023-02-28T08:51:58;79639.00;;;-3.47;47.88
13954;BME280;7049;49.444;8.522;2023-02-28T08:57:01;79601.31;;;-3.47;46.22
13954;BME280;7049;49.444;8.522;2023-02-28T09:02:02;79563.63;;;-3.47;45.61
13954;BME280;7049;49.444;8.522;2023-02-28T09:07:03;79519.66;;;-3.47;45.35
13954;BME280;7049;49.444;8.522;2023-02-28T09:12:06;79484.09;;;-3.47;43.06
13954;BME280;7049;49.444;8.522;2023-02-28T09:17:08;79448.50;;;-3.47;42.06
13954;BME280;7049;49.444;8.522;2023-02-28T09:22:10;79404.53;;;-3.47;42.14
13954;BME280;7049;49.444;8.522;2023-02-28T09:27:13;79360.56;;;-3.47;41.10
13954;BME280;7049;49.444;8.522;2023-02-28T09:32:14;79343.81;;;-3.47;39.47
13954;BME280;7049;49.444;8.522;2023-02-28T09:37:17;79316.59;;;-3.47;39.74
13954;BME280;7049;49.444;8.522;2023-02-28T09:42:24;79295.66;;;-3.47;38.38
13954;BME280;7049;49.444;8.522;2023-02-28T09:47:31;79266.38;;;-3.47;38.10
13954;BME280;7049;49.444;8.522;2023-02-28T09:52:37;79245.44;;;-3.47;37.70
13954;BME280;7049;49.444;8.522;2023-02-28T09:57:41;79191.00;;;-3.47;37.46
13954;BME280;7049;49.444;8.522;2023-02-28T10:02:51;79153.31;;;-3.47;37.15
13954;BME280;7049;49.444;8.522;2023-02-28T10:08:03;79094.72;;;-3.47;36.30
13954;BME280;7049;49.444;8.522;2023-02-28T10:13:17;79057.03;;;-3.47;34.94
13954;BME280;7049;49.444;8.522;2023-02-28T10:18:24;79021.44;;;-3.47;35.49
13954;BME280;7049;49.444;8.522;2023-02-28T10:23:31;78994.25;;;-3.47;34.94
13954;BME280;7049;49.444;8.522;2023-02-28T10:28:36;79002.63;;;-3.47;34.61
13954;BME280;7049;49.444;8.522;2023-02-28T10:33:37;78977.50;;;-3.47;34.55
13954;BME280;7049;49.444;8.522;2023-02-28T10:38:39;78956.56;;;-3.47;33.90
13954;BME280;7049;49.444;8.522;2023-02-28T10:43:43;78950.28;;;-3.47;33.54
13954;BME280;7049;49.444;8.522;2023-02-28T10:48:56;78931.44;;;-3.47;33.50
13954;BME280;7049;49.444;8.522;2023-02-28T10:53:59;78950.28;;;-3.47;33.65
13954;BME280;7049;49.444;8.522;2023-02-28T10:59:23;78944.00;;;-3.47;33.73
13954;BME280;7049;49.444;8.522;2023-02-28T11:04:35;78939.81;;;-3.47;33.95
13954;BME280;7049;49.444;8.522;2023-02-28T11:09:40;78956.56;;;-3.47;33.53
13954;BME280;7049;49.444;8.522;2023-02-28T11:14:49;78925.16;;;-3.47;33.71
13954;BME280;7049;49.444;8.522;2023-02-28T11:19:54;78900.06;;;-3.47;33.35
13954;BME280;7049;49.444;8.522;2023-02-28T11:24:59;78897.97;;;-3.47;33.63
13954;BME280;7049;49.444;8.522;2023-02-28T11:30:04;78872.84;;;-3.47;33.12
13954;BME280;7049;49.444;8.522;2023-02-28T11:35:27;78830.97;;;-3.47;33.07
13954;BME280;7049;49.444;8.522;2023-02-28T11:40:36;78789.13;;;-3.47;33.21
13954;BME280;7049;49.444;8.522;2023-02-28T11:45:55;78789.13;;;-3.47;32.57
13954;BME280;7049;49.444;8.522;2023-02-28T11:51:10;78774.47;;;-3.47;32.60
13954;BME280;7049;49.444;8.522;2023-02-28T11:56:21;78770.28;;;-3.47;32.08
13954;BME280;7049;49.444;8.522;2023-02-28T12:01:47;78766.09;;;-3.47;31.63
13954;BME280;7049;49.444;8.522;2023-02-28T12:06:57;78757.72;;;-3.47;32.02
13954;BME280;7049;49.444;8.522;2023-02-28T12:12:08;78749.34;;;-3.47;32.18
13954;BME280;7049;49.444;8.522;2023-02-28T12:17:22;78751.44;;;-3.47;32.30
13954;BME280;7049;49.444;8.522;2023-02-28T12:22:32;78717.94;;;-3.47;32.02
13954;BME280;7049;49.444;8.522;2023-02-28T12:27:38;78713.75;;;-3.47;31.71
13954;BME280;7049;49.444;8.522;2023-02-28T12:32:44;78722.13;;;-3.47;31.93
13954;BME280;7049;49.444;8.522;2023-02-28T12:37:52;78755.63;;;-3.47;31.43
13954;BME280;7049;49.444;8.522;2023-02-28T12:43:03;78764.00;;;-3.47;31.44
13954;BME280;7049;49.444;8.522;2023-02-28T12:48:08;78768.19;;;-3.47;31.15
13954;BME280;7049;49.444;8.522;2023-02-28T12:53:20;78776.56;;;-3.47;31.33
13954;BME280;7049;49.444;8.522;2023-02-28T12:58:30;78784.94;;;-3.47;31.35
13954;BME280;7049;49.444;8.522;2023-02-28T13:04:05;78784.94;;;-3.47;31.32
13954;BME280;7049;49.444;8.522;2023-02-28T13:09:14;78766.09;;;-3.47;31.51
13954;BME280;7049;49.444;8.522;2023-02-28T13:14:25;78797.50;;;-3.47;31.58
13954;BME280;7049;49.444;8.522;2023-02-28T13:19:30;78803.78;;;-3.47;31.64
13954;BME280;7049;49.444;8.522;2023-02-28T13:24:40;78801.69;;;-3.47;32.40
13954;BME280;7049;49.444;8.522;2023-02-28T13:29:43;78803.78;;;-3.47;32.32
13954;BME280;7049;49.444;8.522;2023-02-28T13:40:37;78856.09;;;-3.47;32.10
13954;BME280;7049;49.444;8.522;2023-02-28T13:46:10;78906.31;;;-3.47;32.70
13954;BME280;7049;49.444;8.522;2023-02-28T13:51:42;78927.25;;;-3.47;32.68
13954;BME280;7049;49.444;8.522;2023-02-28T13:56:52;78958.66;;;-3.47;33.12
13954;BME280;7049;49.444;8.522;2023-02-28T14:02:08;78964.94;;;-3.47;33.51
13954;BME280;7049;49.444;8.522;2023-02-28T14:07:20;78960.75;;;-3.47;33.60
13954;BME280;7049;49.444;8.522;2023-02-28T14:12:54;78948.19;;;-3.47;33.61
13954;BME280;7049;49.444;8.522;2023-02-28T14:17:56;78929.34;;;-3.47;33.29
13954;BME280;7049;49.444;8.522;2023-02-28T14:23:04;78925.16;;;-3.47;33.35
13954;BME280;7049;49.444;8.522;2023-02-28T14:28:18;78952.38;;;-3.47;33.31
13954;BME280;7049;49.444;8.522;2023-02-28T14:33:45;78962.84;;;-3.47;33.50
13954;BME280;7049;49.444;8.522;2023-02-28T14:38:50;78969.13;;;-3.47;33.59
13954;BME280;7049;49.444;8.522;2023-02-28T14:43:56;78977.50;;;-3.47;33.52
13954;BME280;7049;49.444;8.522;2023-02-28T14:48:58;78975.41;;;-3.47;33.45
13954;BME280;7049;49.444;8.522;2023-02-28T14:54:01;78979.59;;;-3.47;33.73
13954;BME280;7049;49.444;8.522;2023-02-28T14:59:05;78969.13;;;-3.47;33.69
13954;BME280;7049;49.444;8.522;2023-02-28T15:04:26;78975.41;;;-3.47;33.51
13954;BME280;7049;49.444;8.522;2023-02-28T15:09:28;78987.97;;;-3.47;33.36
13954;BME280;7049;49.444;8.522;2023-02-28T15:14:32;78992.16;;;-3.47;33.31
13954;BME280;7049;49.444;8.522;2023-02-28T15:19:35;79011.00;;;-3.47;33.45
13954;BME280;7049;49.444;8.522;2023-02-28T15:24:38;79021.44;;;-3.47;33.61
13954;BME280;7049;49.444;8.522;2023-02-28T15:29:46;79036.09;;;-3.47;33.89
13954;BME280;7049;49.444;8.522;2023-02-28T15:34:49;79046.56;;;-3.47;33.93
13954;BME280;7049;49.444;8.522;2023-02-28T15:39:51;79065.41;;;-3.47;33.81
13954;BME280;7049;49.444;8.522;2023-02-28T15:44:54;79069.59;;;-3.47;34.20
13954;BME280;7049;49.444;8.522;2023-02-28T15:49:59;79082.16;;;-3.47;34.49
13954;BME280;7049;49.444;8.522;2023-02-28T15:55:08;79077.97;;;-3.47;34.16
13954;BME280;7049;49.444;8.522;2023-02-28T16:00:18;79075.88;;;-3.47;34.39
13954;BME280;7049;49.444;8.522;2023-02-28T16:05:23;79077.97;;;-3.47;34.29
13954;BME280;7049;49.444;8.522;2023-02-28T16:10:30;79057.03;;;-3.47;33.92
13954;BME280;7049;49.444;8.522;2023-02-28T16:15:37;79002.63;;;-3.47;33.51
13954;BME280;7049;49.444;8.522;2023-02-28T16:20:41;78883.31;;;-3.47;32.43
13954;BME280;7049;49.444;8.522;2023-02-28T16:25:44;78642.59;;;-3.47;30.47
13954;BME280;7049;49.444;8.522;2023-02-28T16:30:50;78531.69;;;-3.47;29.01
13954;BME280;7049;49.444;8.522;2023-02-28T16:35:52;78634.22;;;-3.47;29.34
13954;BME280;7049;49.444;8.522;2023-02-28T16:40:57;78728.41;;;-3.47;30.22
13954;BME280;7049;49.444;8.522;2023-02-28T16:46:01;78881.22;;;-3.47;31.30
13954;BME280;7049;49.444;8.522;2023-02-28T16:51:04;79019.34;;;-3.47;32.70
13954;BME280;7049;49.444;8.522;2023-02-28T16:56:06;79124.03;;;-3.47;33.75
13954;BME280;7049;49.444;8.522;2023-02-28T17:01:09;79199.38;;;-3.47;34.66
13954;BME280;7049;49.444;8.522;2023-02-28T17:06:17;79260.09;;;-3.47;35.41
13954;BME280;7049;49.444;8.522;2023-02-28T17:11:20;79306.13;;;-3.47;35.72
13954;BME280;7049;49.444;8.522;2023-02-28T17:16:27;79333.34;;;-3.47;36.39
13954;BME280;7049;49.444;8.522;2023-02-28T17:21:30;79371.03;;;-3.47;36.50
13954;BME280;7049;49.444;8.522;2023-02-28T17:26:31;79383.59;;;-3.47;37.26
13954;BME280;7049;49.444;8.522;2023-02-28T17:31:34;79410.81;;;-3.47;37.54
13954;BME280;7049;49.444;8.522;2023-02-28T17:36:38;79431.75;;;-3.47;37.83
13954;BME280;7049;49.444;8.522;2023-02-28T17:41:40;79446.41;;;-3.47;38.28
13954;BME280;7049;49.444;8.522;2023-02-28T17:46:44;79454.78;;;-3.47;38.75
13954;BME280;7049;49.444;8.522;2023-02-28T17:51:46;79475.72;;;-3.47;39.00
13954;BME280;7049;49.444;8.522;2023-02-28T17:56:48;79479.91;;;-3.47;39.19
13954;BME280;7049;49.444;8.522;2023-02-28T18:01:50;79498.72;;;-3.47;39.53
13954;BME280;7049;49.444;8.522;2023-02-28T18:06:52;79509.19;;;-3.47;39.65
13954;BME280;7049;49.444;8.522;2023-02-28T18:11:55;79525.94;;;-3.47;39.97
13954;BME280;7049;49.444;8.522;2023-02-28T18:16:58;79536.41;;;-3.47;40.19
13954;BME280;7049;49.444;8.522;2023-02-28T18:21:59;79555.25;;;-3.47;40.43
13954;BME280;7049;49.444;8.522;2023-02-28T18:27:01;79569.91;;;-3.47;40.82
13954;BME280;7049;49.444;8.522;2023-02-28T18:32:04;79580.38;;;-3.47;41.25
13954;BME280;7049;49.444;8.522;2023-02-28T18:37:05;79584.56;;;-3.47;41.21
13954;BME280;7049;49.444;8.522;2023-02-28T18:42:06;79592.94;;;-3.47;41.55
13954;BME280;7049;49.444;8.522;2023-02-28T18:47:10;79601.31;;;-3.47;42.01
13954;BME280;7049;49.444;8.522;2023-02-28T18:52:11;79618.06;;;-3.47;42.36
13954;BME280;7049;49.444;8.522;2023-02-28T18:57:13;79626.44;;;-3.47;42.27
13954;BME280;7049;49.444;8.522;2023-02-28T19:02:16;79639.00;;;-3.47;42.47
13954;BME280;7049;49.444;8.522;2023-02-28T19:07:19;79651.56;;;-3.47;42.79
13954;BME280;7049;49.444;8.522;2023-02-28T19:12:20;79666.22;;;-3.47;43.35
13954;BME280;7049;49.444;8.522;2023-02-28T19:17:23;79676.69;;;-3.47;43.50
13954;BME280;7049;49.444;8.522;2023-02-28T19:22:25;79682.97;;;-3.47;44.08
13954;BME280;7049;49.444;8.522;2023-02-28T19:27:26;79701.81;;;-3.47;44.35
13954;BME280;7049;49.444;8.522;2023-02-28T19:32:29;79710.19;;;-3.47;44.58
13954;BME280;7049;49.444;8.522;2023-02-28T19:37:30;79726.94;;;-3.47;44.70
13954;BME280;7049;49.444;8.522;2023-02-28T19:42:32;79731.13;;;-3.47;45.34
13954;BME280;7049;49.444;8.522;2023-02-28T19:47:35;79743.69;;;-3.47;45.47
13954;BME280;7049;49.444;8.522;2023-02-28T19:52:37;79756.25;;;-3.47;46.20
13954;BME280;7049;49.444;8.522;2023-02-28T19:57:38;79764.63;;;-3.47;46.19
13954;BME280;7049;49.444;8.522;2023-02-28T20:02:41;79770.91;;;-3.47;46.82
13954;BME280;7049;49.444;8.522;2023-02-28T20:07:43;79783.47;;;-3.47;47.05
13954;BME280;7049;49.444;8.522;2023-02-28T20:12:45;79791.84;;;-3.47;47.42
13954;BME280;7049;49.444;8.522;2023-02-28T20:17:48;79793.94;;;-3.47;47.70
13954;BME280;7049;49.444;8.522;2023-02-28T20:22:49;79802.31;;;-3.47;47.56
13954;BME280;7049;49.444;8.522;2023-02-28T20:27:51;79812.78;;;-3.47;47.43
13954;BME280;7049;49.444;8.522;2023-02-28T20:32:53;79819.06;;;-3.47;48.23
13954;BME280;7049;49.444;8.522;2023-02-28T20:37:55;79825.34;;;-3.47;48.47
13954;BME280;7049;49.444;8.522;2023-02-28T20:42:56;79846.28;;;-3.47;48.72
13954;BME280;7049;49.444;8.522;2023-02-28T20:47:59;79848.38;;;-3.47;49.02
13954;BME280;7049;49.444;8.522;2023-02-28T20:53:00;79848.38;;;-3.47;48.81
13954;BME280;7049;49.444;8.522;2023-02-28T20:58:02;79854.66;;;-3.47;49.37
13954;BME280;7049;49.444;8.522;2023-02-28T21:03:05;79858.84;;;-3.47;49.54
13954;BME280;7049;49.444;8.522;2023-02-28T21:08:06;79865.13;;;-3.47;49.69
13954;BME280;7049;49.444;8.522;2023-02-28T21:13:07;79875.59;;;-3.47;49.91
13954;BME280;7049;49.444;8.522;2023-02-28T21:18:10;79890.25;;;-3.47;50.72
13954;BME280;7049;49.444;8.522;2023-02-28T21:23:12;79898.63;;;-3.47;50.54
13954;BME280;7049;49.444;8.522;2023-02-28T21:28:14;79904.91;;;-3.47;50.91
13954;BME280;7049;49.444;8.522;2023-02-28T21:33:16;79909.09;;;-3.47;51.42
13954;BME280;7049;49.444;8.522;2023-02-28T21:38:18;79915.38;;;-3.47;50.88
13954;BME280;7049;49.444;8.522;2023-02-28T21:43:19;79923.75;;;-3.47;51.23
13954;BME280;7049;49.444;8.522;2023-02-28T21:48:22;79921.66;;;-3.47;51.20
13954;BME280;7049;49.444;8.522;2023-02-28T21:53:24;79927.94;;;-3.47;51.33
13954;BME280;7049;49.444;8.522;2023-02-28T21:58:25;79932.13;;;-3.47;51.54
13954;BME280;7049;49.444;8.522;2023-02-28T22:03:28;79940.50;;;-3.47;51.44
13954;BME280;7049;49.444;8.522;2023-02-28T22:08:29;79940.50;;;-3.47;51.48
13954;BME280;7049;49.444;8.522;2023-02-28T22:13:31;79948.88;;;-3.47;51.26
13954;BME280;7049;49.444;8.522;2023-02-28T22:18:34;79944.69;;;-3.47;51.30
13954;BME280;7049;49.444;8.522;2023-02-28T22:23:38;79950.97;;;-3.47;51.82
13954;BME280;7049;49.444;8.522;2023-02-28T22:28:39;79948.88;;;-3.47;52.58
13954;BME280;7049;49.444;8.522;2023-02-28T22:33:44;79948.88;;;-3.47;52.37
13954;BME280;7049;49.444;8.522;2023-02-28T22:38:46;79948.88;;;-3.47;52.56
13954;BME280;7049;49.444;8.522;2023-02-28T22:43:51;79953.06;;;-3.47;52.72
13954;BME280;7049;49.444;8.522;2023-02-28T22:48:56;79957.25;;;-3.47;52.98
13954;BME280;7049;49.444;8.522;2023-02-28T22:53:58;79963.53;;;-3.47;52.80
13954;BME280;7049;49.444;8.522;2023-02-28T22:59:00;79971.91;;;-3.47;53.35
13954;BME280;7049;49.444;8.522;2023-02-28T23:04:03;79980.28;;;-3.47;53.68
13954;BME280;7049;49.444;8.522;2023-02-28T23:09:06;79986.56;;;-3.47;53.99
13954;BME280;7049;49.444;8.522;2023-02-28T23:14:09;79994.94;;;-3.47;53.95
13954;BME280;7049;49.444;8.522;2023-02-28T23:19:15;79990.75;;;-3.47;54.10
13954;BME280;7049;49.444;8.522;2023-02-28T23:24:18;79994.94;;;-3.47;54.45
13954;BME280;7049;49.444;8.522;2023-02-28T23:29:22;79994.94;;;-3.47;54.50
13954;BME280;7049;49.444;8.522;2023-02-28T23:34:25;79990.75;;;-3.47;54.45
13954;BME280;7049;49.444;8.522;2023-02-28T23:39:29;79992.84;;;-3.47;54.66
13954;BME280;7049;49.444;8.522;2023-02-28T23:44:31;79992.84;;;-3.47;54.76
13954;BME280;7049;49.444;8.522;2023-02-28T23:49:34;80001.22;;;-3.47;55.25
13954;BME280;7049;49.444;8.522;2023-02-28T23:54:36;79988.66;;;-3.47;55.56
13954;BME280;7049;49.444;8.522;2023-02-28T23:59:38;79982.38;;;-3.47;55.46
